Data for 04/10/2017

Time Sea-Level Adjusted Pressure Absolute Pressure Temperature Relative Humidity Dew Point   
(mb) (inHg) (mb) (inHg) (C) (F) (%) (C) (F)
00:05 1020 30.12 849 25.07 -1.4 29.5 76 -5 22.9
00:10 1020 30.12 849 25.07 -1.5 29.3 77 -5.1 22.9
00:15 1020 30.12 849 25.07 -1.5 29.2 77 -5.1 22.7
00:20 1020 30.12 849 25.07 -1.5 29.3 76 -5.2 22.6
00:25 1020 30.12 849 25.07 -1.5 29.3 76 -5.3 22.5
00:30 1020 30.12 849 25.07 -1.6 29.1 76 -5.3 22.4
00:35 1020 30.12 849 25.07 -1.7 28.9 77 -5.3 22.4
00:40 1020 30.12 849 25.07 -1.8 28.7 77 -5.4 22.3
00:45 1020 30.12 849 25.07 -2 28.5 78 -5.4 22.3
00:50 1020 30.12 849 25.07 -2.1 28.2 78 -5.4 22.3
00:55 1020 30.12 849 25.07 -2.1 28.2 78 -5.4 22.3
01:00 1020 30.12 849 25.07 -2.2 28.1 78 -5.4 22.2
01:05 1020 30.12 849 25.07 -2.2 28.1 78 -5.5 22
01:10 1020 30.12 849 25.07 -2 28.3 76 -5.8 21.6
01:15 1020 30.12 849 25.07 -2 28.4 76 -5.8 21.6
01:20 1020 30.12 849 25.07 -2 28.3 74 -6 21.2
01:25 1020 30.12 849 25.07 -2 28.4 74 -6 21.3
01:30 1020 30.12 849 25.07 -2 28.4 74 -6.1 21
01:35 1020 30.12 849 25.07 -2.2 28.1 74 -6.2 20.8
01:40 1020 30.12 849 25.07 -2.2 28 74 -6.2 20.9
01:45 1020 30.12 849 25.07 -2.4 27.7 75 -6.3 20.7
01:50 1020 30.12 849 25.07 -2.5 27.5 75 -6.4 20.6
01:55 1020 30.12 849 25.07 -2.6 27.3 75 -6.4 20.6
02:00 1020 30.12 849 25.07 -2.6 27.4 76 -6.2 20.8
02:05 1020 30.12 849 25.07 -2.5 27.4 76 -6.2 20.9
02:10 1020 30.12 849 25.07 -2.6 27.4 76 -6.3 20.6
02:15 1020 30.12 849 25.07 -2.7 27.1 74 -6.7 19.9
02:20 1020 30.12 849 25.07 -2.9 26.7 76 -6.6 20.1
02:25 1020 30.12 849 25.07 -2.9 26.7 75 -6.8 19.8
02:30 1019 30.09 849 25.07 -2.9 26.8 74 -6.9 19.5
02:35 1019 30.09 849 25.07 -3 26.6 74 -7 19.4
02:40 1019 30.09 849 25.07 -2.9 26.8 73 -7.1 19.2
02:45 1019 30.09 849 25.07 -2.8 26.9 72 -7.2 19
02:50 1019 30.09 849 25.07 -2.7 27.1 71 -7.2 19.1
02:55 1019 30.09 849 25.07 -2.7 27.2 71 -7.2 19
03:00 1019 30.09 849 25.07 -2.7 27.1 71 -7.3 18.8
03:05 1019 30.09 849 25.07 -2.9 26.8 72 -7.3 18.8
03:10 1019 30.09 849 25.07 -2.9 26.7 71 -7.4 18.6
03:15 1019 30.09 849 25.07 -3 26.6 72 -7.3 18.9
03:20 1019 30.09 849 25.07 -3 26.6 72 -7.3 18.8
03:25 1019 30.09 849 25.07 -3.1 26.4 73 -7.3 18.9
03:30 1019 30.09 849 25.07 -3.2 26.2 73 -7.5 18.5
03:35 1019 30.09 849 25.07 -3.3 26 73 -7.5 18.4
03:40 1019 30.09 849 25.07 -3.4 25.9 73 -7.6 18.3
03:45 1019 30.09 849 25.07 -3.4 25.9 73 -7.6 18.4
03:50 1019 30.09 849 25.07 -3.4 25.9 74 -7.5 18.6
03:55 1019 30.09 849 25.07 -3.4 25.9 73 -7.5 18.5
04:00 1019 30.09 849 25.07 -3.4 25.8 74 -7.4 18.6
04:05 1019 30.09 849 25.07 -3.4 25.9 73 -7.5 18.4
04:10 1019 30.09 848 25.04 -3.3 26.1 72 -7.6 18.3
04:15 1019 30.09 848 25.04 -3.2 26.2 72 -7.5 18.5
04:20 1019 30.09 848 25.04 -3.3 26 71 -7.8 17.9
04:25 1019 30.09 848 25.04 -3.3 26.1 71 -7.8 18
04:30 1019 30.09 848 25.04 -3.3 26.1 70 -8 17.6
04:35 1019 30.09 848 25.04 -3.3 26.1 70 -8 17.6
04:40 1019 30.09 848 25.04 -3.3 26.1 69 -8.2 17.3
04:45 1019 30.09 848 25.04 -3.2 26.2 69 -8.1 17.4
04:50 1019 30.09 848 25.04 -3.3 26.1 69 -8.1 17.4
04:55 1019 30.09 848 25.04 -3.5 25.8 70 -8.2 17.2
05:00 1019 30.09 848 25.04 -3.6 25.5 70 -8.3 17.1
05:05 1019 30.09 848 25.04 -3.5 25.7 69 -8.4 16.8
05:10 1019 30.09 848 25.04 -3.4 26 68 -8.5 16.8
05:15 1019 30.09 848 25.04 -3.2 26.2 66 -8.6 16.5
05:20 1019 30.09 848 25.04 -3 26.6 65 -8.6 16.5
05:25 1019 30.09 848 25.04 -3 26.5 65 -8.7 16.3
05:30 1019 30.09 848 25.04 -3 26.5 66 -8.6 16.6
05:35 1019 30.09 848 25.04 -3.3 26.1 67 -8.6 16.5
05:40 1019 30.09 848 25.04 -3.4 25.9 67 -8.7 16.3
05:45 1019 30.09 848 25.04 -3.4 25.9 66 -8.8 16.2
05:50 1019 30.09 848 25.04 -3.4 26 66 -8.8 16.2
05:55 1019 30.09 848 25.04 -3.3 26.1 66 -8.8 16.2
06:00 1019 30.09 848 25.04 -3.3 26.1 66 -8.8 16.1
06:05 1019 30.09 848 25.04 -3.1 26.5 63 -9.1 15.6
06:10 1019 30.09 848 25.04 -2.8 26.9 62 -9 15.7
06:15 1019 30.09 848 25.04 -2.9 26.7 64 -8.7 16.3
06:20 1019 30.09 848 25.04 -3.2 26.2 64 -9 15.8
06:25 1019 30.09 848 25.04 -3.1 26.3 65 -8.9 16.1
06:30 1019 30.09 849 25.07 -3.2 26.2 65 -8.9 16
06:35 1019 30.09 849 25.07 -3.2 26.2 64 -9.1 15.7
06:40 1019 30.09 849 25.07 -3.2 26.3 64 -9 15.9
06:45 1019 30.09 849 25.07 -3.2 26.2 65 -8.9 15.9
06:50 1019 30.09 849 25.07 -3.2 26.3 65 -9 15.9
06:55 1019 30.09 849 25.07 -3.2 26.2 65 -9 15.9
07:00 1019 30.09 849 25.07 -3.3 26.1 65 -9 15.8
07:05 1019 30.09 849 25.07 -3.1 26.4 64 -9 15.8
07:10 1019 30.09 849 25.07 -3 26.5 64 -9 15.8
07:15 1019 30.09 849 25.07 -3 26.6 63 -9 15.8
07:20 1019 30.09 849 25.07 -3 26.7 63 -8.9 15.9
07:25 1019 30.09 849 25.07 -2.7 27.1 62 -9.1 15.7
07:30 1019 30.09 849 25.07 -2.6 27.3 61 -9.1 15.6
07:35 1019 30.09 849 25.07 -2.4 27.6 61 -9 15.8
07:40 1019 30.09 849 25.07 -2.3 27.9 60 -9.1 15.6
07:45 1019 30.09 849 25.07 -2.1 28.2 59 -9.1 15.6
07:50 1019 30.09 849 25.07 -1.9 28.6 59 -8.9 16
07:55 1020 30.12 849 25.07 -1.8 28.8 59 -8.8 16.1
08:00 1020 30.12 849 25.07 -1.7 28.9 59 -8.8 16.1
08:05 1020 30.12 849 25.07 -1.8 28.8 59 -8.8 16.1
08:10 1020 30.12 849 25.07 -1.6 29.1 58 -8.9 16
08:15 1020 30.12 849 25.07 -1.4 29.4 58 -8.6 16.6
08:20 1020 30.12 849 25.07 -1.3 29.7 57 -8.7 16.3
08:25 1020 30.12 849 25.07 -1 30.1 56 -8.6 16.4
08:30 1020 30.12 849 25.07 -0.9 30.4 56 -8.5 16.7
08:35 1020 30.12 849 25.07 -0.8 30.5 57 -8.3 17
08:40 1020 30.12 849 25.07 -0.6 30.9 57 -8.1 17.4
08:45 1020 30.12 849 25.07 -0.1 31.9 56 -7.9 17.8
08:50 1020 30.12 849 25.07 0.1 32.2 55 -7.9 17.7
08:55 1020 30.12 849 25.07 0.2 32.4 53 -8.2 17.3
09:00 1020 30.12 849 25.07 0.5 32.9 52 -8.4 17
09:05 1020 30.12 849 25.07 1 33.8 53 -7.6 18.4
09:10 1020 30.12 849 25.07 1.3 34.4 52 -7.5 18.5
09:15 1020 30.12 849 25.07 1.5 34.7 52 -7.3 18.8
09:20 1020 30.12 849 25.07 2.2 36 48 -7.7 18.1
09:25 1020 30.12 849 25.07 2.2 36 48 -7.8 18
09:30 1020 30.12 849 25.07 2.5 36.5 47 -7.7 18.2
09:35 1020 30.12 849 25.07 2.7 36.9 49 -6.9 19.6
09:40 1020 30.12 849 25.07 3.4 38.2 43 -7.9 17.8
09:45 1019 30.09 849 25.07 3.7 38.7 44 -7.5 18.5
09:50 1019 30.09 849 25.07 4 39.2 43 -7.6 18.2
09:55 1019 30.09 849 25.07 4.3 39.7 40 -8.1 17.4
10:00 1019 30.09 849 25.07 4.4 40 42 -7.4 18.6
10:05 1019 30.09 849 25.07 4.5 40.1 39 -8.4 16.8
10:10 1019 30.09 849 25.07 4.7 40.4 36 -9 15.7
10:15 1019 30.09 849 25.07 4.7 40.5 38 -8.5 16.7
10:20 1019 30.09 848 25.04 4.9 40.8 37 -8.6 16.5
10:25 1019 30.09 848 25.04 5.5 42 33 -9.5 14.9
10:30 1019 30.09 848 25.04 5.1 41.2 38 -7.9 17.7
10:35 1019 30.09 848 25.04 5.3 41.6 34 -9.3 15.3
10:40 1019 30.09 848 25.04 5.4 41.7 37 -8 17.6
10:45 1019 30.09 848 25.04 6.3 43.3 33 -8.8 16.2
10:50 1019 30.09 848 25.04 6.4 43.4 35 -7.9 17.7
10:55 1019 30.09 848 25.04 6.4 43.6 35 -8 17.5
11:00 1019 30.09 848 25.04 6 42.8 36 -8 17.6
11:05 1019 30.09 848 25.04 6.9 44.4 32 -8.8 16.1
11:10 1019 30.09 848 25.04 6.8 44.3 31 -9 15.7
11:15 1019 30.09 848 25.04 7.1 44.8 34 -7.6 18.3
11:20 1019 30.09 848 25.04 6.6 43.9 33 -8.7 16.4
11:25 1019 30.09 848 25.04 6.7 44.1 30 -9.6 14.8
11:30 1019 30.09 848 25.04 6.7 44.1 29 -9.9 14.2
11:35 1019 30.09 848 25.04 6.7 44.1 30 -9.8 14.3
11:40 1019 30.09 848 25.04 6.3 43.4 31 -9.8 14.3
11:45 1019 30.09 848 25.04 6.3 43.4 34 -8.6 16.5
11:50 1018 30.06 848 25.04 6.6 43.9 31 -9.2 15.4
11:55 1018 30.06 848 25.04 6.6 43.8 33 -8.5 16.7
12:00 1018 30.06 847 25.01 6.4 43.6 32 -9.3 15.3
12:05 1018 30.06 847 25.01 6.3 43.4 32 -9.2 15.5
12:10 1018 30.06 847 25.01 6.4 43.5 34 -8.4 16.9
12:15 1018 30.06 847 25.01 6.3 43.3 33 -8.8 16.1
12:20 1018 30.06 847 25.01 6.6 43.8 33 -8.7 16.4
12:25 1018 30.06 847 25.01 6.4 43.6 32 -9 15.8
12:30 1018 30.06 847 25.01 6.5 43.7 33 -8.7 16.3
12:35 1018 30.06 847 25.01 6.7 44.1 33 -8.4 17
12:40 1018 30.06 847 25.01 7.1 44.8 31 -8.8 16.2
12:45 1018 30.06 847 25.01 7.3 45.2 31 -8.6 16.5
12:50 1018 30.06 847 25.01 7.7 45.9 31 -8.6 16.6
12:55 1018 30.06 847 25.01 7.8 46 30 -8.7 16.3
13:00 1018 30.06 847 25.01 7.3 45.2 31 -8.9 16
13:05 1018 30.06 847 25.01 7.2 44.9 31 -8.7 16.4
13:10 1018 30.06 847 25.01 7.6 45.7 31 -8.6 16.5
13:15 1017 30.03 847 25.01 7.9 46.1 31 -8.3 17.1
13:20 1017 30.03 847 25.01 7.8 46 32 -8 17.6
13:25 1017 30.03 847 25.01 8 46.4 31 -8.1 17.4
13:30 1017 30.03 847 25.01 7.7 45.9 32 -7.9 17.7
13:35 1017 30.03 847 25.01 7.9 46.2 30 -8.8 16.2
13:40 1017 30.03 847 25.01 7.8 46 29 -9.2 15.5
13:45 1017 30.03 846 24.98 7.5 45.5 30 -9 15.8
13:50 1017 30.03 846 24.98 7.7 45.8 30 -8.6 16.4
13:55 1017 30.03 846 24.98 8 46.4 27 -10 13.9
14:00 1017 30.03 846 24.98 7.6 45.7 28 -9.8 14.4
14:05 1017 30.03 846 24.98 7.7 45.9 26 -10.7 12.7
14:10 1017 30.03 846 24.98 7.5 45.6 26 -10.8 12.6
14:15 1017 30.03 846 24.98 7.8 46 28 -9.8 14.4
14:20 1017 30.03 846 24.98 8.1 46.6 27 -9.8 14.3
14:25 1017 30.03 846 24.98 8.2 46.8 27 -9.8 14.4
14:30 1017 30.03 846 24.98 8.6 47.4 28 -8.9 16
14:35 1017 30.03 846 24.98 8.7 47.7 25 -10.3 13.5
14:40 1017 30.03 846 24.98 8.2 46.8 28 -9.3 15.3
14:45 1017 30.03 846 24.98 8.5 47.3 27 -9.5 14.9
14:50 1017 30.03 846 24.98 8.9 48 27 -8.9 16
14:55 1017 30.03 846 24.98 9 48.2 26 -9.4 15
15:00 1016 30 846 24.98 8.4 47.1 27 -9.3 15.2
15:05 1016 30 846 24.98 8.1 46.5 30 -8.4 16.9
15:10 1016 30 845 24.95 7.8 46 30 -8.7 16.4
15:15 1016 30 845 24.95 8 46.3 30 -8.7 16.3
15:20 1016 30 845 24.95 7.8 46.1 31 -8.4 16.8
15:25 1016 30 845 24.95 7.7 45.8 32 -7.8 17.9
15:30 1016 30 845 24.95 7.9 46.1 34 -7.1 19.2
15:35 1016 30 845 24.95 7.9 46.1 34 -7 19.5
15:40 1016 30 845 24.95 7.8 46 35 -6.7 19.9
15:45 1016 30 845 24.95 7.4 45.4 36 -6.5 20.2
15:50 1016 30 845 24.95 7.2 44.9 39 -5.9 21.4
15:55 1016 30 845 24.95 7.4 45.4 38 -5.9 21.4
16:00 1016 30 845 24.95 7.7 45.9 34 -7 19.3
16:05 1016 30 845 24.95 7.9 46.3 33 -7.5 18.5
16:10 1016 30 845 24.95 8 46.3 34 -7.1 19.2
16:15 1016 30 845 24.95 8 46.4 34 -7.1 19.2
16:20 1016 30 845 24.95 8.2 46.7 31 -8 17.6
16:25 1016 30 845 24.95 8.1 46.6 31 -7.8 17.9
16:30 1016 30 845 24.95 8.2 46.8 29 -8.7 16.3
16:35 1016 30 845 24.95 8.5 47.3 30 -8.2 17.3
16:40 1016 30 845 24.95 7.8 46 46 -3 26.6
16:45 1016 30 845 24.95 6.1 43 55 -2.2 28.1
16:50 1016 30 846 24.98 5.3 41.5 59 -2.1 28.1
16:55 1016 30 846 24.98 5.1 41.3 58 -2.4 27.7
17:00 1017 30.03 846 24.98 5.1 41.2 57 -2.6 27.3
17:05 1017 30.03 846 24.98 4.4 39.9 69 -0.9 30.4
17:10 1017 30.03 846 24.98 3.6 38.5 66 -2.1 28.2
17:15 1017 30.03 846 24.98 3.7 38.6 63 -2.7 27.1
17:20 1017 30.03 846 24.98 3.8 38.9 59 -3.5 25.7
17:25 1017 30.03 846 24.98 4.6 40.3 54 -3.8 25.2
17:30 1017 30.03 846 24.98 5 41 54 -3.5 25.8
17:35 1017 30.03 846 24.98 5 41.1 54 -3.4 25.9
17:40 1017 30.03 846 24.98 5.3 41.5 53 -3.6 25.4
17:45 1017 30.03 846 24.98 5.4 41.7 56 -2.7 27.1
17:50 1017 30.03 846 24.98 4.9 40.8 64 -1.3 29.7
17:55 1017 30.03 847 25.01 4 39.2 72 -0.7 30.7
18:00 1018 30.06 847 25.01 3.6 38.4 74 -0.6 30.9
18:05 1018 30.06 847 25.01 3.4 38.2 74 -0.7 30.7
18:10 1018 30.06 847 25.01 3.5 38.3 75 -0.6 31
18:15 1018 30.06 847 25.01 3.5 38.3 76 -0.4 31.3
18:20 1018 30.06 848 25.04 3.2 37.7 79 -0 31.9
18:25 1018 30.06 847 25.01 2.4 36.4 84 -0.1 31.9
18:30 1018 30.06 848 25.04 1.5 34.7 87 -0.4 31.3
18:35 1018 30.06 847 25.01 1.1 33.9 90 -0.4 31.2
18:40 1018 30.06 847 25.01 1.1 34 91 -0.2 31.6
18:45 1018 30.06 847 25.01 1.3 34.3 90 -0.2 31.7
18:50 1018 30.06 847 25.01 1.2 34.2 90 -0.2 31.6
18:55 1018 30.06 847 25.01 1.1 34 90 -0.3 31.4
19:00 1018 30.06 847 25.01 1.3 34.4 90 -0.2 31.7
19:05 1018 30.06 847 25.01 1.5 34.7 89 -0.1 31.8
19:10 1018 30.06 847 25.01 1.7 35 88 -0.1 31.8
19:15 1018 30.06 847 25.01 1.8 35.2 87 -0.1 31.8
19:20 1018 30.06 847 25.01 1.7 35.1 87 -0.2 31.6
19:25 1018 30.06 847 25.01 1.6 34.9 87 -0.3 31.5
19:30 1018 30.06 847 25.01 1.8 35.2 87 -0.1 31.8
19:35 1018 30.06 847 25.01 2.2 35.9 85 -0.1 31.8
19:40 1018 30.06 847 25.01 2.3 36.1 85 -0 31.9
19:45 1018 30.06 848 25.04 2.1 35.7 85 -0.2 31.6
19:50 1018 30.06 848 25.04 2.2 35.9 85 -0.2 31.7
19:55 1018 30.06 848 25.04 2.2 35.9 83 -0.4 31.4
20:00 1018 30.06 848 25.04 2.1 35.7 83 -0.5 31.1
20:05 1018 30.06 847 25.01 1.9 35.4 83 -0.7 30.7
20:10 1018 30.06 847 25.01 1.9 35.4 82 -0.8 30.5
20:15 1018 30.06 847 25.01 2 35.5 82 -0.8 30.5
20:20 1018 30.06 847 25.01 1.9 35.5 82 -0.9 30.4
20:25 1018 30.06 848 25.04 2 35.5 81 -0.9 30.4
20:30 1018 30.06 848 25.04 2.1 35.8 80 -1 30.2
20:35 1019 30.09 848 25.04 2.1 35.7 82 -0.7 30.7
20:40 1019 30.09 848 25.04 2.1 35.7 82 -0.7 30.7
20:45 1019 30.09 849 25.07 1.9 35.5 84 -0.6 31
20:50 1020 30.12 849 25.07 1.1 34 89 -0.6 31
20:55 1020 30.12 849 25.07 0.5 32.9 91 -0.8 30.5
21:00 1020 30.12 849 25.07 0.3 32.6 92 -0.8 30.5
21:05 1020 30.12 849 25.07 0.3 32.5 92 -0.9 30.5
21:10 1020 30.12 849 25.07 0.1 32.2 93 -0.9 30.4
21:15 1020 30.12 849 25.07 0.1 32.2 93 -0.9 30.5
21:20 1020 30.12 849 25.07 0.2 32.3 93 -0.8 30.5
21:25 1020 30.12 850 25.1 0.2 32.4 93 -0.7 30.7
21:30 1020 30.12 850 25.1 0.3 32.5 93 -0.7 30.8
21:35 1020 30.12 850 25.1 0.4 32.7 93 -0.6 30.9
21:40 1020 30.12 850 25.1 0.3 32.6 93 -0.6 30.9
21:45 1020 30.12 850 25.1 0.3 32.6 93 -0.7 30.8
21:50 1020 30.12 850 25.1 0.2 32.4 93 -0.8 30.6
21:55 1021 30.15 850 25.1 0.1 32.1 93 -0.9 30.4
22:00 1020 30.12 850 25.1 0 32.1 94 -0.9 30.4
22:05 1021 30.15 850 25.1 0 32 93 -0.9 30.3
22:10 1021 30.15 850 25.1 -0 32 94 -0.9 30.3
22:15 1021 30.15 850 25.1 0 32 94 -0.9 30.4
22:20 1021 30.15 850 25.1 0.1 32.2 93 -0.8 30.5
22:25 1021 30.15 850 25.1 0.2 32.4 93 -0.8 30.5
22:30 1021 30.15 850 25.1 0.3 32.5 93 -0.8 30.6
22:35 1021 30.15 850 25.1 0.4 32.7 92 -0.7 30.7
22:40 1021 30.15 850 25.1 0.4 32.7 92 -0.8 30.6
22:45 1021 30.15 850 25.1 0.5 32.9 91 -0.8 30.6
22:50 1021 30.15 850 25.1 0.5 32.9 91 -0.8 30.5
22:55 1021 30.15 850 25.1 0.5 32.9 90 -1 30.2
23:00 1021 30.15 850 25.1 0.4 32.8 90 -1.1 30.1
23:05 1021 30.15 850 25.1 0.4 32.7 90 -1.1 30
23:10 1021 30.15 850 25.1 0.5 32.8 90 -1.1 30.1
23:15 1021 30.15 850 25.1 0.5 32.9 90 -1 30.3
23:20 1021 30.15 850 25.1 0.5 33 89 -1 30.1
23:25 1021 30.15 850 25.1 0.6 33.1 88 -1.1 30.1
23:30 1021 30.15 850 25.1 0.6 33.1 88 -1.1 30
23:35 1021 30.15 850 25.1 0.6 33.1 89 -1 30.1
23:40 1021 30.15 850 25.1 0.7 33.3 89 -1 30.2
23:45 1021 30.15 850 25.1 0.6 33.2 89 -1 30.2
23:50 1021 30.15 850 25.1 0.6 33 89 -1.1 30.1
23:55 1021 30.15 850 25.1 0.4 32.8 89 -1.1 30
24:00 1021 30.15 850 25.1 0.3 32.5 90 -1.2 29.9